Santa Catalina, California
Current Conditions -  °F | °C
As of 6:51 PM on Saturday 22 Nov 2014 (Local Time) from KAVX Reporting Station
Clear Clear  
Wind Chill: 59°   Ceiling: Unl
Heat Index: 59°   Visibility: 10mi
Dew Point: 49°   Wind: 7mph
Humidity: 69%   Direction: 330°NNW
Pressure: 30.05"   Gusts: NA
Location:  33.382°N, 118.433°W
Report Text: KAVX 230251Z AUTO 33006KT 10SM CLR 15/09 A3005 RMK AO2 SLP166 T01500094 55005
Loading
Personal Weather Stations






























Interactive Weather Map New forecast layout! Learn more

10-Day Weather Forecast

Advertisements
Track Severe Weather on mobile